sensor_id;sensor_type;location;lat;lon;timestamp;temperature;humidity
7876;DHT22;69649;53.712;9.680;2023-09-30T00:01:11;12.20;78.10
7876;DHT22;69649;53.712;9.680;2023-09-30T00:03:37;12.20;78.00
7876;DHT22;69649;53.712;9.680;2023-09-30T00:06:03;12.30;78.40
7876;DHT22;69649;53.712;9.680;2023-09-30T00:08:29;12.20;78.30
7876;DHT22;69649;53.712;9.680;2023-09-30T00:10:56;12.20;78.80
7876;DHT22;69649;53.712;9.680;2023-09-30T00:13:22;12.20;78.80
7876;DHT22;69649;53.712;9.680;2023-09-30T00:15:48;12.00;79.70
7876;DHT22;69649;53.712;9.680;2023-09-30T00:18:14;12.10;80.00
7876;DHT22;69649;53.712;9.680;2023-09-30T00:20:40;12.00;79.80
7876;DHT22;69649;53.712;9.680;2023-09-30T00:23:05;12.10;79.90
7876;DHT22;69649;53.712;9.680;2023-09-30T00:25:32;12.20;79.70
7876;DHT22;69649;53.712;9.680;2023-09-30T00:27:58;12.20;79.60
7876;DHT22;69649;53.712;9.680;2023-09-30T00:30:24;12.20;79.50
7876;DHT22;69649;53.712;9.680;2023-09-30T00:33:10;12.20;79.50
7876;DHT22;69649;53.712;9.680;2023-09-30T00:35:35;12.30;79.40
7876;DHT22;69649;53.712;9.680;2023-09-30T00:38:02;12.30;79.40
7876;DHT22;69649;53.712;9.680;2023-09-30T00:40:28;12.30;79.20
7876;DHT22;69649;53.712;9.680;2023-09-30T00:42:55;12.30;79.20
7876;DHT22;69649;53.712;9.680;2023-09-30T00:45:21;12.30;79.20
7876;DHT22;69649;53.712;9.680;2023-09-30T00:47:47;12.30;79.10
7876;DHT22;69649;53.712;9.680;2023-09-30T00:50:13;12.30;79.20
7876;DHT22;69649;53.712;9.680;2023-09-30T00:52:40;12.40;79.20
7876;DHT22;69649;53.712;9.680;2023-09-30T00:55:08;12.50;79.00
7876;DHT22;69649;53.712;9.680;2023-09-30T00:57:34;12.40;79.30
7876;DHT22;69649;53.712;9.680;2023-09-30T01:00:00;12.40;79.30
7876;DHT22;69649;53.712;9.680;2023-09-30T01:02:27;12.40;79.70
7876;DHT22;69649;53.712;9.680;2023-09-30T01:04:54;12.50;79.70
7876;DHT22;69649;53.712;9.680;2023-09-30T01:07:21;12.50;79.50
7876;DHT22;69649;53.712;9.680;2023-09-30T01:09:49;12.50;79.30
7876;DHT22;69649;53.712;9.680;2023-09-30T01:12:16;12.60;79.00
7876;DHT22;69649;53.712;9.680;2023-09-30T01:14:42;12.60;78.60
7876;DHT22;69649;53.712;9.680;2023-09-30T01:17:08;12.70;78.60
7876;DHT22;69649;53.712;9.680;2023-09-30T01:19:35;12.60;78.30
7876;DHT22;69649;53.712;9.680;2023-09-30T01:22:01;12.60;78.40
7876;DHT22;69649;53.712;9.680;2023-09-30T01:24:29;12.50;78.30
7876;DHT22;69649;53.712;9.680;2023-09-30T01:26:56;12.50;78.30
7876;DHT22;69649;53.712;9.680;2023-09-30T01:29:22;12.40;78.60
7876;DHT22;69649;53.712;9.680;2023-09-30T01:31:48;12.40;78.70
7876;DHT22;69649;53.712;9.680;2023-09-30T01:34:16;12.40;78.80
7876;DHT22;69649;53.712;9.680;2023-09-30T01:36:42;12.50;78.80
7876;DHT22;69649;53.712;9.680;2023-09-30T01:39:11;12.50;78.70
7876;DHT22;69649;53.712;9.680;2023-09-30T01:41:38;12.60;78.50
7876;DHT22;69649;53.712;9.680;2023-09-30T01:46:52;12.50;78.40
7876;DHT22;69649;53.712;9.680;2023-09-30T01:49:17;12.50;78.30
7876;DHT22;69649;53.712;9.680;2023-09-30T01:51:48;12.50;78.30
7876;DHT22;69649;53.712;9.680;2023-09-30T01:54:14;12.60;78.00
7876;DHT22;69649;53.712;9.680;2023-09-30T01:56:40;12.50;77.70
7876;DHT22;69649;53.712;9.680;2023-09-30T01:59:05;12.50;78.10
7876;DHT22;69649;53.712;9.680;2023-09-30T02:01:31;12.50;77.90
7876;DHT22;69649;53.712;9.680;2023-09-30T02:03:57;12.50;78.00
7876;DHT22;69649;53.712;9.680;2023-09-30T02:06:23;12.50;78.00
7876;DHT22;69649;53.712;9.680;2023-09-30T02:08:48;12.50;78.00
7876;DHT22;69649;53.712;9.680;2023-09-30T02:11:14;12.40;78.20
7876;DHT22;69649;53.712;9.680;2023-09-30T02:13:41;12.50;78.20
7876;DHT22;69649;53.712;9.680;2023-09-30T02:16:12;12.40;78.30
7876;DHT22;69649;53.712;9.680;2023-09-30T02:18:39;12.30;78.40
7876;DHT22;69649;53.712;9.680;2023-09-30T02:21:07;12.20;78.50
7876;DHT22;69649;53.712;9.680;2023-09-30T02:23:35;12.10;79.00
7876;DHT22;69649;53.712;9.680;2023-09-30T02:26:02;12.10;78.80
7876;DHT22;69649;53.712;9.680;2023-09-30T02:28:29;12.00;79.00
7876;DHT22;69649;53.712;9.680;2023-09-30T02:30:56;12.00;79.20
7876;DHT22;69649;53.712;9.680;2023-09-30T02:33:22;12.00;79.20
7876;DHT22;69649;53.712;9.680;2023-09-30T02:35:48;11.90;79.50
7876;DHT22;69649;53.712;9.680;2023-09-30T02:38:15;11.90;79.50
7876;DHT22;69649;53.712;9.680;2023-09-30T02:40:44;12.00;79.10
7876;DHT22;69649;53.712;9.680;2023-09-30T02:43:12;11.90;79.40
7876;DHT22;69649;53.712;9.680;2023-09-30T02:45:39;11.90;79.80
7876;DHT22;69649;53.712;9.680;2023-09-30T02:48:05;11.90;79.80
7876;DHT22;69649;53.712;9.680;2023-09-30T02:50:32;11.80;80.20
7876;DHT22;69649;53.712;9.680;2023-09-30T02:52:58;11.80;80.20
7876;DHT22;69649;53.712;9.680;2023-09-30T02:55:23;11.90;80.00
7876;DHT22;69649;53.712;9.680;2023-09-30T02:57:49;11.90;80.20
7876;DHT22;69649;53.712;9.680;2023-09-30T03:00:18;11.90;80.20
7876;DHT22;69649;53.712;9.680;2023-09-30T03:02:49;11.90;80.30
7876;DHT22;69649;53.712;9.680;2023-09-30T03:05:17;11.90;80.00
7876;DHT22;69649;53.712;9.680;2023-09-30T03:07:43;11.90;80.20
7876;DHT22;69649;53.712;9.680;2023-09-30T03:10:09;12.00;80.20
7876;DHT22;69649;53.712;9.680;2023-09-30T03:12:35;12.10;80.00
7876;DHT22;69649;53.712;9.680;2023-09-30T03:15:02;11.90;79.80
7876;DHT22;69649;53.712;9.680;2023-09-30T03:17:30;12.00;79.90
7876;DHT22;69649;53.712;9.680;2023-09-30T03:19:58;12.00;79.60
7876;DHT22;69649;53.712;9.680;2023-09-30T03:22:26;12.00;79.50
7876;DHT22;69649;53.712;9.680;2023-09-30T03:24:57;12.00;79.50
7876;DHT22;69649;53.712;9.680;2023-09-30T03:27:22;12.00;79.60
7876;DHT22;69649;53.712;9.680;2023-09-30T03:29:48;12.00;79.50
7876;DHT22;69649;53.712;9.680;2023-09-30T03:32:15;12.00;79.30
7876;DHT22;69649;53.712;9.680;2023-09-30T03:34:40;12.00;79.20
7876;DHT22;69649;53.712;9.680;2023-09-30T03:37:08;11.90;79.60
7876;DHT22;69649;53.712;9.680;2023-09-30T03:39:35;11.90;79.50
7876;DHT22;69649;53.712;9.680;2023-09-30T03:42:01;11.90;79.80
7876;DHT22;69649;53.712;9.680;2023-09-30T03:44:28;12.00;80.00
7876;DHT22;69649;53.712;9.680;2023-09-30T03:46:54;12.00;80.00
7876;DHT22;69649;53.712;9.680;2023-09-30T03:49:20;11.90;80.20
7876;DHT22;69649;53.712;9.680;2023-09-30T03:51:46;11.90;80.20
7876;DHT22;69649;53.712;9.680;2023-09-30T03:54:12;12.00;80.40
7876;DHT22;69649;53.712;9.680;2023-09-30T03:56:38;12.10;80.10
7876;DHT22;69649;53.712;9.680;2023-09-30T03:59:04;12.20;79.80
7876;DHT22;69649;53.712;9.680;2023-09-30T04:01:30;12.10;79.70
7876;DHT22;69649;53.712;9.680;2023-09-30T04:03:56;12.10;79.60
7876;DHT22;69649;53.712;9.680;2023-09-30T04:06:42;11.90;80.00
7876;DHT22;69649;53.712;9.680;2023-09-30T04:09:08;11.90;80.40
7876;DHT22;69649;53.712;9.680;2023-09-30T04:11:36;11.80;80.40
7876;DHT22;69649;53.712;9.680;2023-09-30T04:14:08;11.80;80.40
7876;DHT22;69649;53.712;9.680;2023-09-30T04:16:31;11.90;80.20
7876;DHT22;69649;53.712;9.680;2023-09-30T04:18:58;11.90;80.10
7876;DHT22;69649;53.712;9.680;2023-09-30T04:21:23;11.90;79.70
7876;DHT22;69649;53.712;9.680;2023-09-30T04:23:49;11.90;79.80
7876;DHT22;69649;53.712;9.680;2023-09-30T04:26:15;11.80;80.00
7876;DHT22;69649;53.712;9.680;2023-09-30T04:28:41;11.90;80.00
7876;DHT22;69649;53.712;9.680;2023-09-30T04:31:06;11.80;79.80
7876;DHT22;69649;53.712;9.680;2023-09-30T04:33:33;11.70;80.20
7876;DHT22;69649;53.712;9.680;2023-09-30T04:36:01;11.70;80.30
7876;DHT22;69649;53.712;9.680;2023-09-30T04:38:27;11.60;80.40
7876;DHT22;69649;53.712;9.680;2023-09-30T04:40:53;11.60;80.70
7876;DHT22;69649;53.712;9.680;2023-09-30T04:43:20;11.70;80.50
7876;DHT22;69649;53.712;9.680;2023-09-30T04:45:47;11.70;80.20
7876;DHT22;69649;53.712;9.680;2023-09-30T04:48:14;11.70;80.20
7876;DHT22;69649;53.712;9.680;2023-09-30T04:50:40;11.80;80.10
7876;DHT22;69649;53.712;9.680;2023-09-30T04:53:07;11.80;79.70
7876;DHT22;69649;53.712;9.680;2023-09-30T04:55:34;11.70;79.90
7876;DHT22;69649;53.712;9.680;2023-09-30T04:58:00;11.70;80.00
7876;DHT22;69649;53.712;9.680;2023-09-30T05:00:26;11.70;80.40
7876;DHT22;69649;53.712;9.680;2023-09-30T05:02:55;11.70;80.40
7876;DHT22;69649;53.712;9.680;2023-09-30T05:05:21;11.70;80.40
7876;DHT22;69649;53.712;9.680;2023-09-30T05:07:47;11.70;80.10
7876;DHT22;69649;53.712;9.680;2023-09-30T05:10:13;11.70;80.40
7876;DHT22;69649;53.712;9.680;2023-09-30T05:12:44;11.70;80.60
7876;DHT22;69649;53.712;9.680;2023-09-30T05:15:13;11.70;80.50
7876;DHT22;69649;53.712;9.680;2023-09-30T05:20:33;11.60;80.50
7876;DHT22;69649;53.712;9.680;2023-09-30T05:23:01;11.70;80.60
7876;DHT22;69649;53.712;9.680;2023-09-30T05:25:26;11.70;80.40
7876;DHT22;69649;53.712;9.680;2023-09-30T05:27:53;11.70;80.30
7876;DHT22;69649;53.712;9.680;2023-09-30T05:30:19;11.90;80.10
7876;DHT22;69649;53.712;9.680;2023-09-30T05:32:46;11.90;80.00
7876;DHT22;69649;53.712;9.680;2023-09-30T05:35:12;11.90;79.80
7876;DHT22;69649;53.712;9.680;2023-09-30T05:37:42;11.90;80.00
7876;DHT22;69649;53.712;9.680;2023-09-30T05:40:09;11.90;79.80
7876;DHT22;69649;53.712;9.680;2023-09-30T05:42:36;11.90;79.60
7876;DHT22;69649;53.712;9.680;2023-09-30T05:45:03;11.90;79.80
7876;DHT22;69649;53.712;9.680;2023-09-30T05:47:30;11.80;80.10
7876;DHT22;69649;53.712;9.680;2023-09-30T05:49:56;11.70;80.00
7876;DHT22;69649;53.712;9.680;2023-09-30T05:52:22;11.70;80.40
7876;DHT22;69649;53.712;9.680;2023-09-30T05:55:08;11.70;80.70
7876;DHT22;69649;53.712;9.680;2023-09-30T05:57:34;11.70;80.70
7876;DHT22;69649;53.712;9.680;2023-09-30T06:00:01;11.80;80.50
7876;DHT22;69649;53.712;9.680;2023-09-30T06:02:28;11.90;80.30
7876;DHT22;69649;53.712;9.680;2023-09-30T06:04:55;11.90;80.00
7876;DHT22;69649;53.712;9.680;2023-09-30T06:07:22;12.00;79.90
7876;DHT22;69649;53.712;9.680;2023-09-30T06:09:48;11.90;79.70
7876;DHT22;69649;53.712;9.680;2023-09-30T06:12:15;11.90;80.00
7876;DHT22;69649;53.712;9.680;2023-09-30T06:14:41;11.90;80.10
7876;DHT22;69649;53.712;9.680;2023-09-30T06:17:07;11.90;79.80
7876;DHT22;69649;53.712;9.680;2023-09-30T06:19:33;11.90;79.90
7876;DHT22;69649;53.712;9.680;2023-09-30T06:21:59;12.00;79.80
7876;DHT22;69649;53.712;9.680;2023-09-30T06:24:25;12.10;79.70
7876;DHT22;69649;53.712;9.680;2023-09-30T06:26:50;12.10;79.30
7876;DHT22;69649;53.712;9.680;2023-09-30T06:29:17;12.10;79.50
7876;DHT22;69649;53.712;9.680;2023-09-30T06:31:42;12.10;79.50
7876;DHT22;69649;53.712;9.680;2023-09-30T06:34:09;12.20;79.30
7876;DHT22;69649;53.712;9.680;2023-09-30T06:36:36;12.10;79.60
7876;DHT22;69649;53.712;9.680;2023-09-30T06:39:03;12.00;79.90
7876;DHT22;69649;53.712;9.680;2023-09-30T06:41:31;12.10;80.00
7876;DHT22;69649;53.712;9.680;2023-09-30T06:43:57;12.20;80.00
7876;DHT22;69649;53.712;9.680;2023-09-30T06:46:23;12.30;79.80
7876;DHT22;69649;53.712;9.680;2023-09-30T06:48:49;12.30;79.70
7876;DHT22;69649;53.712;9.680;2023-09-30T06:51:17;12.30;79.50
7876;DHT22;69649;53.712;9.680;2023-09-30T06:53:43;12.40;79.70
7876;DHT22;69649;53.712;9.680;2023-09-30T06:56:11;12.50;79.50
7876;DHT22;69649;53.712;9.680;2023-09-30T06:58:38;12.60;79.40
7876;DHT22;69649;53.712;9.680;2023-09-30T07:01:04;12.70;79.10
7876;DHT22;69649;53.712;9.680;2023-09-30T07:03:30;12.80;79.00
7876;DHT22;69649;53.712;9.680;2023-09-30T07:05:56;12.90;78.90
7876;DHT22;69649;53.712;9.680;2023-09-30T07:08:23;13.00;78.80
7876;DHT22;69649;53.712;9.680;2023-09-30T07:10:49;13.00;78.50
7876;DHT22;69649;53.712;9.680;2023-09-30T07:13:16;13.10;78.30
7876;DHT22;69649;53.712;9.680;2023-09-30T07:15:43;13.10;78.00
7876;DHT22;69649;53.712;9.680;2023-09-30T07:18:09;13.30;77.70
7876;DHT22;69649;53.712;9.680;2023-09-30T07:20:35;13.30;77.50
7876;DHT22;69649;53.712;9.680;2023-09-30T07:23:01;13.40;77.20
7876;DHT22;69649;53.712;9.680;2023-09-30T07:25:27;13.50;77.10
7876;DHT22;69649;53.712;9.680;2023-09-30T07:27:53;13.50;77.10
7876;DHT22;69649;53.712;9.680;2023-09-30T07:30:19;13.50;77.00
7876;DHT22;69649;53.712;9.680;2023-09-30T07:32:45;13.60;76.70
7876;DHT22;69649;53.712;9.680;2023-09-30T07:35:11;13.60;76.50
7876;DHT22;69649;53.712;9.680;2023-09-30T07:37:38;13.70;76.70
7876;DHT22;69649;53.712;9.680;2023-09-30T07:40:05;13.80;76.80
7876;DHT22;69649;53.712;9.680;2023-09-30T07:42:31;13.90;76.40
7876;DHT22;69649;53.712;9.680;2023-09-30T07:44:59;14.00;75.80
7876;DHT22;69649;53.712;9.680;2023-09-30T07:47:24;14.10;75.70
7876;DHT22;69649;53.712;9.680;2023-09-30T07:49:50;14.30;75.70
7876;DHT22;69649;53.712;9.680;2023-09-30T07:52:16;14.30;74.80
7876;DHT22;69649;53.712;9.680;2023-09-30T07:54:42;14.30;74.90
7876;DHT22;69649;53.712;9.680;2023-09-30T07:57:07;14.50;74.70
7876;DHT22;69649;53.712;9.680;2023-09-30T07:59:40;14.60;74.00
7876;DHT22;69649;53.712;9.680;2023-09-30T08:02:06;14.50;74.00
7876;DHT22;69649;53.712;9.680;2023-09-30T08:04:32;14.50;73.90
7876;DHT22;69649;53.712;9.680;2023-09-30T08:06:58;14.60;73.90
7876;DHT22;69649;53.712;9.680;2023-09-30T08:09:24;14.70;73.90
7876;DHT22;69649;53.712;9.680;2023-09-30T08:11:50;14.90;73.60
7876;DHT22;69649;53.712;9.680;2023-09-30T08:14:16;14.90;73.30
7876;DHT22;69649;53.712;9.680;2023-09-30T08:16:42;15.00;73.30
7876;DHT22;69649;53.712;9.680;2023-09-30T08:19:08;15.20;73.60
7876;DHT22;69649;53.712;9.680;2023-09-30T08:21:34;15.50;72.30
7876;DHT22;69649;53.712;9.680;2023-09-30T08:24:01;15.50;72.00
7876;DHT22;69649;53.712;9.680;2023-09-30T08:26:27;15.60;72.20
7876;DHT22;69649;53.712;9.680;2023-09-30T08:28:53;15.60;72.00
7876;DHT22;69649;53.712;9.680;2023-09-30T08:31:19;15.80;71.50
7876;DHT22;69649;53.712;9.680;2023-09-30T08:33:47;15.60;71.60
7876;DHT22;69649;53.712;9.680;2023-09-30T08:36:13;15.60;71.10
7876;DHT22;69649;53.712;9.680;2023-09-30T08:38:40;15.50;71.40
7876;DHT22;69649;53.712;9.680;2023-09-30T08:41:06;15.60;72.00
7876;DHT22;69649;53.712;9.680;2023-09-30T08:43:40;15.70;71.50
7876;DHT22;69649;53.712;9.680;2023-09-30T08:46:06;15.80;70.90
7876;DHT22;69649;53.712;9.680;2023-09-30T08:48:33;15.80;70.80
7876;DHT22;69649;53.712;9.680;2023-09-30T08:51:00;15.80;71.20
7876;DHT22;69649;53.712;9.680;2023-09-30T08:53:29;16.00;71.20
7876;DHT22;69649;53.712;9.680;2023-09-30T08:55:56;16.00;71.20
7876;DHT22;69649;53.712;9.680;2023-09-30T08:58:26;16.10;70.80
7876;DHT22;69649;53.712;9.680;2023-09-30T09:00:53;16.20;70.60
7876;DHT22;69649;53.712;9.680;2023-09-30T09:03:19;16.40;69.60
7876;DHT22;69649;53.712;9.680;2023-09-30T09:05:56;16.40;69.70
7876;DHT22;69649;53.712;9.680;2023-09-30T09:08:24;16.60;69.50
7876;DHT22;69649;53.712;9.680;2023-09-30T09:10:58;16.60;69.20
7876;DHT22;69649;53.712;9.680;2023-09-30T09:13:25;16.70;69.60
7876;DHT22;69649;53.712;9.680;2023-09-30T09:16:05;16.70;68.60
7876;DHT22;69649;53.712;9.680;2023-09-30T09:18:32;16.70;68.70
7876;DHT22;69649;53.712;9.680;2023-09-30T09:24:01;16.70;69.40
7876;DHT22;69649;53.712;9.680;2023-09-30T09:26:28;16.80;69.50
7876;DHT22;69649;53.712;9.680;2023-09-30T09:28:57;16.90;68.70
7876;DHT22;69649;53.712;9.680;2023-09-30T09:31:30;17.00;68.60
7876;DHT22;69649;53.712;9.680;2023-09-30T09:33:54;17.20;68.90
7876;DHT22;69649;53.712;9.680;2023-09-30T09:36:20;17.30;68.30
7876;DHT22;69649;53.712;9.680;2023-09-30T09:38:52;17.40;67.40
7876;DHT22;69649;53.712;9.680;2023-09-30T09:41:20;17.40;67.80
7876;DHT22;69649;53.712;9.680;2023-09-30T09:43:48;17.50;68.20
7876;DHT22;69649;53.712;9.680;2023-09-30T09:46:16;17.50;67.30
7876;DHT22;69649;53.712;9.680;2023-09-30T09:48:45;17.50;66.50
7876;DHT22;69649;53.712;9.680;2023-09-30T09:51:12;17.50;67.10
7876;DHT22;69649;53.712;9.680;2023-09-30T09:53:41;17.50;67.30
7876;DHT22;69649;53.712;9.680;2023-09-30T09:56:10;17.60;66.90
7876;DHT22;69649;53.712;9.680;2023-09-30T09:58:39;17.80;66.70
7876;DHT22;69649;53.712;9.680;2023-09-30T10:01:08;17.80;66.60
7876;DHT22;69649;53.712;9.680;2023-09-30T10:03:36;17.90;65.90
7876;DHT22;69649;53.712;9.680;2023-09-30T10:06:03;18.00;66.30
7876;DHT22;69649;53.712;9.680;2023-09-30T10:08:41;18.20;66.10
7876;DHT22;69649;53.712;9.680;2023-09-30T10:11:10;18.30;65.90
7876;DHT22;69649;53.712;9.680;2023-09-30T10:13:57;18.30;65.60
7876;DHT22;69649;53.712;9.680;2023-09-30T10:21:35;18.60;65.00
7876;DHT22;69649;53.712;9.680;2023-09-30T10:40:51;19.20;62.80
7876;DHT22;69649;53.712;9.680;2023-09-30T10:46:02;19.20;62.30
7876;DHT22;69649;53.712;9.680;2023-09-30T10:50:58;19.40;61.70
7876;DHT22;69649;53.712;9.680;2023-09-30T10:53:26;19.20;61.90
7876;DHT22;69649;53.712;9.680;2023-09-30T10:55:57;19.30;61.60
7876;DHT22;69649;53.712;9.680;2023-09-30T11:01:14;19.50;61.90
7876;DHT22;69649;53.712;9.680;2023-09-30T11:03:41;19.70;61.30
7876;DHT22;69649;53.712;9.680;2023-09-30T11:06:07;19.80;61.60
7876;DHT22;69649;53.712;9.680;2023-09-30T11:08:34;19.90;60.40
7876;DHT22;69649;53.712;9.680;2023-09-30T11:11:01;20.00;60.70
7876;DHT22;69649;53.712;9.680;2023-09-30T11:13:34;20.30;59.30
7876;DHT22;69649;53.712;9.680;2023-09-30T11:16:05;20.50;59.50
7876;DHT22;69649;53.712;9.680;2023-09-30T11:18:31;20.40;58.70
7876;DHT22;69649;53.712;9.680;2023-09-30T11:21:08;20.50;58.70
7876;DHT22;69649;53.712;9.680;2023-09-30T11:23:35;20.40;59.90
7876;DHT22;69649;53.712;9.680;2023-09-30T11:26:01;20.50;58.20
7876;DHT22;69649;53.712;9.680;2023-09-30T11:28:35;20.50;58.80
7876;DHT22;69649;53.712;9.680;2023-09-30T11:31:01;20.40;57.70
7876;DHT22;69649;53.712;9.680;2023-09-30T11:33:29;20.30;58.20
7876;DHT22;69649;53.712;9.680;2023-09-30T11:36:01;20.20;58.30
7876;DHT22;69649;53.712;9.680;2023-09-30T11:38:32;20.00;58.70
7876;DHT22;69649;53.712;9.680;2023-09-30T11:41:03;19.90;59.20
7876;DHT22;69649;53.712;9.680;2023-09-30T11:43:38;19.90;59.90
7876;DHT22;69649;53.712;9.680;2023-09-30T11:46:09;19.90;60.00
7876;DHT22;69649;53.712;9.680;2023-09-30T11:48:37;19.90;59.70
7876;DHT22;69649;53.712;9.680;2023-09-30T11:51:04;20.00;60.20
7876;DHT22;69649;53.712;9.680;2023-09-30T11:53:31;19.90;58.40
7876;DHT22;69649;53.712;9.680;2023-09-30T11:56:00;20.00;58.70
7876;DHT22;69649;53.712;9.680;2023-09-30T11:58:32;20.00;58.90
7876;DHT22;69649;53.712;9.680;2023-09-30T12:00:58;20.00;58.60
7876;DHT22;69649;53.712;9.680;2023-09-30T12:03:26;20.00;58.10
7876;DHT22;69649;53.712;9.680;2023-09-30T12:05:55;20.00;58.60
7876;DHT22;69649;53.712;9.680;2023-09-30T12:08:22;20.10;58.60
7876;DHT22;69649;53.712;9.680;2023-09-30T12:10:49;20.30;57.90
7876;DHT22;69649;53.712;9.680;2023-09-30T12:13:15;20.40;57.50
7876;DHT22;69649;53.712;9.680;2023-09-30T12:15:42;20.40;56.50
7876;DHT22;69649;53.712;9.680;2023-09-30T12:18:09;20.60;57.20
7876;DHT22;69649;53.712;9.680;2023-09-30T12:20:36;20.80;56.00
7876;DHT22;69649;53.712;9.680;2023-09-30T12:23:02;20.90;55.20
7876;DHT22;69649;53.712;9.680;2023-09-30T12:25:29;21.00;56.80
7876;DHT22;69649;53.712;9.680;2023-09-30T12:27:55;21.20;54.80
7876;DHT22;69649;53.712;9.680;2023-09-30T12:30:21;20.90;55.10
7876;DHT22;69649;53.712;9.680;2023-09-30T12:32:47;20.90;56.00
7876;DHT22;69649;53.712;9.680;2023-09-30T12:35:13;20.90;56.10
7876;DHT22;69649;53.712;9.680;2023-09-30T12:37:38;21.00;56.50
7876;DHT22;69649;53.712;9.680;2023-09-30T12:40:06;21.10;56.70
7876;DHT22;69649;53.712;9.680;2023-09-30T12:42:37;21.30;55.90
7876;DHT22;69649;53.712;9.680;2023-09-30T12:45:05;21.20;56.50
7876;DHT22;69649;53.712;9.680;2023-09-30T12:47:31;21.00;55.80
7876;DHT22;69649;53.712;9.680;2023-09-30T12:49:57;20.70;56.20
7876;DHT22;69649;53.712;9.680;2023-09-30T12:52:23;20.60;57.10
7876;DHT22;69649;53.712;9.680;2023-09-30T12:54:50;20.50;57.60
7876;DHT22;69649;53.712;9.680;2023-09-30T12:57:15;20.50;58.10
7876;DHT22;69649;53.712;9.680;2023-09-30T12:59:43;20.40;57.70
7876;DHT22;69649;53.712;9.680;2023-09-30T13:02:12;20.30;58.60
7876;DHT22;69649;53.712;9.680;2023-09-30T13:04:38;20.00;57.20
7876;DHT22;69649;53.712;9.680;2023-09-30T13:07:09;19.90;57.00
7876;DHT22;69649;53.712;9.680;2023-09-30T13:09:39;19.70;58.20
7876;DHT22;69649;53.712;9.680;2023-09-30T13:12:05;19.60;58.30
7876;DHT22;69649;53.712;9.680;2023-09-30T13:14:31;19.50;58.70
7876;DHT22;69649;53.712;9.680;2023-09-30T13:16:57;19.50;59.40
7876;DHT22;69649;53.712;9.680;2023-09-30T13:19:23;19.50;59.30
7876;DHT22;69649;53.712;9.680;2023-09-30T13:21:50;19.40;59.00
7876;DHT22;69649;53.712;9.680;2023-09-30T13:24:16;19.50;59.10
7876;DHT22;69649;53.712;9.680;2023-09-30T13:26:42;19.50;58.50
7876;DHT22;69649;53.712;9.680;2023-09-30T13:29:08;19.50;57.90
7876;DHT22;69649;53.712;9.680;2023-09-30T13:31:37;19.60;58.40
7876;DHT22;69649;53.712;9.680;2023-09-30T13:34:04;19.80;58.10
7876;DHT22;69649;53.712;9.680;2023-09-30T13:36:30;20.00;57.70
7876;DHT22;69649;53.712;9.680;2023-09-30T13:38:56;20.30;58.00
7876;DHT22;69649;53.712;9.680;2023-09-30T13:41:22;20.50;57.60
7876;DHT22;69649;53.712;9.680;2023-09-30T13:43:48;20.50;57.90
7876;DHT22;69649;53.712;9.680;2023-09-30T13:46:14;20.80;56.90
7876;DHT22;69649;53.712;9.680;2023-09-30T13:48:41;21.10;56.20
7876;DHT22;69649;53.712;9.680;2023-09-30T13:51:09;21.50;55.70
7876;DHT22;69649;53.712;9.680;2023-09-30T13:53:36;21.70;54.00
7876;DHT22;69649;53.712;9.680;2023-09-30T13:56:03;21.70;53.80
7876;DHT22;69649;53.712;9.680;2023-09-30T13:58:29;21.50;53.80
7876;DHT22;69649;53.712;9.680;2023-09-30T14:00:55;21.30;54.90
7876;DHT22;69649;53.712;9.680;2023-09-30T14:03:23;21.40;54.60
7876;DHT22;69649;53.712;9.680;2023-09-30T14:05:50;21.40;54.90
7876;DHT22;69649;53.712;9.680;2023-09-30T14:08:16;21.50;54.50
7876;DHT22;69649;53.712;9.680;2023-09-30T14:10:42;21.30;55.50
7876;DHT22;69649;53.712;9.680;2023-09-30T14:13:10;21.10;55.00
7876;DHT22;69649;53.712;9.680;2023-09-30T14:15:36;20.90;56.40
7876;DHT22;69649;53.712;9.680;2023-09-30T14:18:03;21.00;56.10
7876;DHT22;69649;53.712;9.680;2023-09-30T14:20:29;20.70;56.00
7876;DHT22;69649;53.712;9.680;2023-09-30T14:22:55;20.60;56.70
7876;DHT22;69649;53.712;9.680;2023-09-30T14:25:22;21.10;55.50
7876;DHT22;69649;53.712;9.680;2023-09-30T14:27:48;21.70;54.20
7876;DHT22;69649;53.712;9.680;2023-09-30T14:30:16;22.20;53.70
7876;DHT22;69649;53.712;9.680;2023-09-30T14:32:42;22.60;53.30
7876;DHT22;69649;53.712;9.680;2023-09-30T14:35:09;22.90;52.60
7876;DHT22;69649;53.712;9.680;2023-09-30T14:37:35;22.80;52.90
7876;DHT22;69649;53.712;9.680;2023-09-30T14:40:02;22.70;52.90
7876;DHT22;69649;53.712;9.680;2023-09-30T14:42:30;22.60;53.50
7876;DHT22;69649;53.712;9.680;2023-09-30T14:44:56;22.10;53.80
7876;DHT22;69649;53.712;9.680;2023-09-30T14:47:22;21.50;55.00
7876;DHT22;69649;53.712;9.680;2023-09-30T14:49:47;21.10;55.50
7876;DHT22;69649;53.712;9.680;2023-09-30T14:52:14;20.80;56.90
7876;DHT22;69649;53.712;9.680;2023-09-30T14:54:41;20.50;57.10
7876;DHT22;69649;53.712;9.680;2023-09-30T14:57:07;20.30;57.70
7876;DHT22;69649;53.712;9.680;2023-09-30T14:59:35;20.20;58.30
7876;DHT22;69649;53.712;9.680;2023-09-30T15:02:01;20.10;58.20
7876;DHT22;69649;53.712;9.680;2023-09-30T15:04:26;19.80;58.00
7876;DHT22;69649;53.712;9.680;2023-09-30T15:06:53;19.60;58.40
7876;DHT22;69649;53.712;9.680;2023-09-30T15:09:19;19.40;58.20
7876;DHT22;69649;53.712;9.680;2023-09-30T15:11:44;19.30;58.20
7876;DHT22;69649;53.712;9.680;2023-09-30T15:14:10;19.10;58.60
7876;DHT22;69649;53.712;9.680;2023-09-30T15:16:36;19.10;58.40
7876;DHT22;69649;53.712;9.680;2023-09-30T15:19:02;19.10;58.70
7876;DHT22;69649;53.712;9.680;2023-09-30T15:21:28;19.30;58.50
7876;DHT22;69649;53.712;9.680;2023-09-30T15:23:54;19.50;58.40
7876;DHT22;69649;53.712;9.680;2023-09-30T15:26:19;19.60;58.20
7876;DHT22;69649;53.712;9.680;2023-09-30T15:28:45;19.70;58.30
7876;DHT22;69649;53.712;9.680;2023-09-30T15:31:11;19.70;58.00
7876;DHT22;69649;53.712;9.680;2023-09-30T15:33:37;19.70;58.60
7876;DHT22;69649;53.712;9.680;2023-09-30T15:36:14;19.70;58.80
7876;DHT22;69649;53.712;9.680;2023-09-30T15:38:42;19.70;59.40
7876;DHT22;69649;53.712;9.680;2023-09-30T15:41:10;19.50;59.10
7876;DHT22;69649;53.712;9.680;2023-09-30T15:43:37;19.40;58.80
7876;DHT22;69649;53.712;9.680;2023-09-30T15:46:02;19.20;58.90
7876;DHT22;69649;53.712;9.680;2023-09-30T15:48:29;19.10;59.40
7876;DHT22;69649;53.712;9.680;2023-09-30T15:50:55;19.00;59.60
7876;DHT22;69649;53.712;9.680;2023-09-30T15:53:21;18.80;60.00
7876;DHT22;69649;53.712;9.680;2023-09-30T15:55:47;18.80;60.40
7876;DHT22;69649;53.712;9.680;2023-09-30T15:58:13;18.70;60.50
7876;DHT22;69649;53.712;9.680;2023-09-30T16:00:39;18.70;60.70
7876;DHT22;69649;53.712;9.680;2023-09-30T16:03:06;18.60;61.10
7876;DHT22;69649;53.712;9.680;2023-09-30T16:05:33;18.60;61.60
7876;DHT22;69649;53.712;9.680;2023-09-30T16:08:02;18.60;62.50
7876;DHT22;69649;53.712;9.680;2023-09-30T16:10:29;18.50;62.40
7876;DHT22;69649;53.712;9.680;2023-09-30T16:12:55;18.40;61.90
7876;DHT22;69649;53.712;9.680;2023-09-30T16:15:21;18.40;62.30
7876;DHT22;69649;53.712;9.680;2023-09-30T16:17:47;18.40;62.50
7876;DHT22;69649;53.712;9.680;2023-09-30T16:20:13;18.30;62.10
7876;DHT22;69649;53.712;9.680;2023-09-30T16:22:39;18.30;62.70